Terminal Aerodrome Forecast
Issued by NWS

Home | Current Version | Previous Version | Text Only | Print | Product List | Glossary On
Versions: 1 2 3 4 5 6 7 8 9 10 11 12 13 14 15 16 17 18 19 20 21 22 23 24 25 26 27 28 29 30 31 32 33 34
000
FTUS43 KLSX 300012 AAA
TAFUIN
TAF AMD
KUIN 300012Z 3000/3024 06010KT P6SM SCT020 BKN100
      TEMPO 3002/3006 BKN020
     FM300600 08013KT 6SM -SHRA OVC020
     FM300900 08015KT 4SM -SHRA BR VCTS OVC010CB
     FM301500 10015KT 5SM -SHRA BR OVC010
     FM301800 18010KT P6SM BKN020=

USA.gov is the U.S. government's official web portal to all federal, state and local government web resources and services.